KPVF

Placerville Airport

Placerville, California, USA
METAR KPVF 190655Z AUTO 27007KT 3/4SM OVC002 06/06 A3005 RMK AO1 P0023
Observed Flight Rules
Jan-19 @ 06:55 UTC (30 minutes ago) Instrument Flight Rules
Wind Visibility Clouds
270° at 7 knots 3/4 miles
  • Overcast at 200' AGL
Temperatures Readings Precipitation
Current 6°C / 43°F
Dewpoint 6°C / 43°F
Humidity 100%
Altimeter 30.05" Hg
Pressure 1018 hPa
Elevation 789
Current Rain 0.23
METAR KPVF 190655Z AUTO 27007KT 3/4SM OVC002 06/06 A3005 RMK AO1 P0023
Observed Flight Rules
Jan-19 @ 06:55 UTC
(30 minutes ago)
LIFR
Wind Visibility
270° at 7 knots 3/4 miles
Clouds
  • Overcast at 200' AGL
Temperature Dewpoint
6°C / 43°F 6°C / 43°F
Humidity Altimeter Pressure
100% 30.05" Hg 1018 hPa
Current Rain
0.23